sensor_id;sensor_type;location;lat;lon;timestamp;P1;durP1;ratioP1;P2;durP2;ratioP2
21424;SDS011;10873;51.132;16.848;2023-02-28T00:00:30;19.35;;;12.32;;
21424;SDS011;10873;51.132;16.848;2023-02-28T00:03:14;20.65;;;13.23;;
21424;SDS011;10873;51.132;16.848;2023-02-28T00:05:40;19.92;;;12.98;;
21424;SDS011;10873;51.132;16.848;2023-02-28T00:08:06;19.77;;;12.65;;
21424;SDS011;10873;51.132;16.848;2023-02-28T00:10:33;19.63;;;11.82;;
21424;SDS011;10873;51.132;16.848;2023-02-28T00:13:00;18.88;;;12.02;;
21424;SDS011;10873;51.132;16.848;2023-02-28T00:15:29;17.92;;;11.45;;
21424;SDS011;10873;51.132;16.848;2023-02-28T00:17:55;18.20;;;11.55;;
21424;SDS011;10873;51.132;16.848;2023-02-28T00:20:22;17.02;;;11.70;;
21424;SDS011;10873;51.132;16.848;2023-02-28T00:22:49;17.15;;;11.23;;
21424;SDS011;10873;51.132;16.848;2023-02-28T00:25:18;18.45;;;11.52;;
21424;SDS011;10873;51.132;16.848;2023-02-28T00:27:44;17.83;;;11.88;;
21424;SDS011;10873;51.132;16.848;2023-02-28T00:30:15;18.98;;;11.48;;
21424;SDS011;10873;51.132;16.848;2023-02-28T00:32:41;16.83;;;11.65;;
21424;SDS011;10873;51.132;16.848;2023-02-28T00:35:08;17.20;;;11.60;;
21424;SDS011;10873;51.132;16.848;2023-02-28T00:37:35;16.77;;;11.73;;
21424;SDS011;10873;51.132;16.848;2023-02-28T00:40:03;22.23;;;13.88;;
21424;SDS011;10873;51.132;16.848;2023-02-28T00:42:31;19.60;;;13.60;;
21424;SDS011;10873;51.132;16.848;2023-02-28T00:44:57;17.48;;;12.55;;
21424;SDS011;10873;51.132;16.848;2023-02-28T00:47:24;19.60;;;12.60;;
21424;SDS011;10873;51.132;16.848;2023-02-28T00:49:50;19.83;;;13.15;;
21424;SDS011;10873;51.132;16.848;2023-02-28T00:52:16;19.08;;;12.85;;
21424;SDS011;10873;51.132;16.848;2023-02-28T00:54:42;18.55;;;12.70;;
21424;SDS011;10873;51.132;16.848;2023-02-28T00:57:08;19.83;;;13.30;;
21424;SDS011;10873;51.132;16.848;2023-02-28T00:59:34;19.63;;;12.88;;
21424;SDS011;10873;51.132;16.848;2023-02-28T01:02:00;19.65;;;13.20;;
21424;SDS011;10873;51.132;16.848;2023-02-28T01:04:27;18.83;;;13.00;;
21424;SDS011;10873;51.132;16.848;2023-02-28T01:06:53;17.80;;;12.10;;
21424;SDS011;10873;51.132;16.848;2023-02-28T01:09:19;19.63;;;13.30;;
21424;SDS011;10873;51.132;16.848;2023-02-28T01:11:45;18.08;;;12.27;;
21424;SDS011;10873;51.132;16.848;2023-02-28T01:14:12;19.75;;;13.88;;
21424;SDS011;10873;51.132;16.848;2023-02-28T01:16:39;19.27;;;12.70;;
21424;SDS011;10873;51.132;16.848;2023-02-28T01:19:05;22.45;;;13.40;;
21424;SDS011;10873;51.132;16.848;2023-02-28T01:21:32;20.00;;;13.05;;
21424;SDS011;10873;51.132;16.848;2023-02-28T01:24:00;20.52;;;13.02;;
21424;SDS011;10873;51.132;16.848;2023-02-28T01:26:26;20.90;;;13.02;;
21424;SDS011;10873;51.132;16.848;2023-02-28T01:28:52;20.25;;;13.98;;
21424;SDS011;10873;51.132;16.848;2023-02-28T01:31:19;18.65;;;12.75;;
21424;SDS011;10873;51.132;16.848;2023-02-28T01:33:46;19.85;;;12.18;;
21424;SDS011;10873;51.132;16.848;2023-02-28T01:36:13;20.58;;;13.40;;
21424;SDS011;10873;51.132;16.848;2023-02-28T01:38:41;20.17;;;12.85;;
21424;SDS011;10873;51.132;16.848;2023-02-28T01:41:08;19.40;;;12.70;;
21424;SDS011;10873;51.132;16.848;2023-02-28T01:43:54;19.65;;;12.95;;
21424;SDS011;10873;51.132;16.848;2023-02-28T01:46:22;20.70;;;13.32;;
21424;SDS011;10873;51.132;16.848;2023-02-28T01:48:50;19.33;;;13.00;;
21424;SDS011;10873;51.132;16.848;2023-02-28T01:51:20;18.38;;;12.43;;
21424;SDS011;10873;51.132;16.848;2023-02-28T01:53:54;18.48;;;13.02;;
21424;SDS011;10873;51.132;16.848;2023-02-28T01:56:24;19.08;;;13.02;;
21424;SDS011;10873;51.132;16.848;2023-02-28T01:58:53;22.50;;;14.68;;
21424;SDS011;10873;51.132;16.848;2023-02-28T02:01:20;24.83;;;17.42;;
21424;SDS011;10873;51.132;16.848;2023-02-28T02:03:47;26.58;;;18.30;;
21424;SDS011;10873;51.132;16.848;2023-02-28T02:06:20;25.00;;;17.08;;
21424;SDS011;10873;51.132;16.848;2023-02-28T02:08:47;25.80;;;17.33;;
21424;SDS011;10873;51.132;16.848;2023-02-28T02:11:14;25.38;;;17.20;;
21424;SDS011;10873;51.132;16.848;2023-02-28T02:13:52;25.00;;;16.30;;
21424;SDS011;10873;51.132;16.848;2023-02-28T02:16:32;24.83;;;16.52;;
21424;SDS011;10873;51.132;16.848;2023-02-28T02:19:13;21.95;;;15.23;;
21424;SDS011;10873;51.132;16.848;2023-02-28T02:24:58;23.92;;;15.45;;
21424;SDS011;10873;51.132;16.848;2023-02-28T02:30:44;24.23;;;15.18;;
21424;SDS011;10873;51.132;16.848;2023-02-28T02:33:36;22.35;;;15.90;;
21424;SDS011;10873;51.132;16.848;2023-02-28T02:36:21;23.85;;;16.05;;
21424;SDS011;10873;51.132;16.848;2023-02-28T02:38:51;22.40;;;14.98;;
21424;SDS011;10873;51.132;16.848;2023-02-28T02:41:19;23.25;;;15.57;;
21424;SDS011;10873;51.132;16.848;2023-02-28T02:43:53;23.02;;;15.18;;
21424;SDS011;10873;51.132;16.848;2023-02-28T02:46:24;21.25;;;14.43;;
21424;SDS011;10873;51.132;16.848;2023-02-28T02:48:54;24.92;;;15.98;;
21424;SDS011;10873;51.132;16.848;2023-02-28T02:51:24;27.77;;;17.92;;
21424;SDS011;10873;51.132;16.848;2023-02-28T02:53:53;27.73;;;17.63;;
21424;SDS011;10873;51.132;16.848;2023-02-28T02:56:24;28.23;;;17.80;;
21424;SDS011;10873;51.132;16.848;2023-02-28T02:58:53;27.92;;;16.88;;
21424;SDS011;10873;51.132;16.848;2023-02-28T03:01:25;25.63;;;16.13;;
21424;SDS011;10873;51.132;16.848;2023-02-28T03:03:55;26.85;;;17.35;;
21424;SDS011;10873;51.132;16.848;2023-02-28T03:06:24;24.58;;;15.43;;
21424;SDS011;10873;51.132;16.848;2023-02-28T03:08:50;23.02;;;15.15;;
21424;SDS011;10873;51.132;16.848;2023-02-28T03:11:16;25.50;;;15.80;;
21424;SDS011;10873;51.132;16.848;2023-02-28T03:13:44;23.02;;;15.38;;
21424;SDS011;10873;51.132;16.848;2023-02-28T03:16:44;22.52;;;15.13;;
21424;SDS011;10873;51.132;16.848;2023-02-28T03:22:16;22.55;;;14.40;;
21424;SDS011;10873;51.132;16.848;2023-02-28T03:24:54;23.08;;;15.02;;
21424;SDS011;10873;51.132;16.848;2023-02-28T03:27:27;22.55;;;14.45;;
21424;SDS011;10873;51.132;16.848;2023-02-28T03:29:58;23.63;;;14.13;;
21424;SDS011;10873;51.132;16.848;2023-02-28T03:32:28;19.60;;;13.68;;
21424;SDS011;10873;51.132;16.848;2023-02-28T03:34:59;21.70;;;15.18;;
21424;SDS011;10873;51.132;16.848;2023-02-28T03:37:32;21.92;;;13.85;;
21424;SDS011;10873;51.132;16.848;2023-02-28T03:40:03;20.48;;;12.65;;
21424;SDS011;10873;51.132;16.848;2023-02-28T03:42:35;23.13;;;14.57;;
21424;SDS011;10873;51.132;16.848;2023-02-28T03:45:04;22.85;;;14.32;;
21424;SDS011;10873;51.132;16.848;2023-02-28T03:47:35;20.88;;;13.40;;
21424;SDS011;10873;51.132;16.848;2023-02-28T03:50:05;21.30;;;14.00;;
21424;SDS011;10873;51.132;16.848;2023-02-28T03:52:38;21.33;;;14.15;;
21424;SDS011;10873;51.132;16.848;2023-02-28T03:55:10;21.20;;;13.90;;
21424;SDS011;10873;51.132;16.848;2023-02-28T03:57:39;22.08;;;14.00;;
21424;SDS011;10873;51.132;16.848;2023-02-28T04:00:11;20.20;;;13.63;;
21424;SDS011;10873;51.132;16.848;2023-02-28T04:02:41;22.17;;;13.75;;
21424;SDS011;10873;51.132;16.848;2023-02-28T04:05:07;22.25;;;13.75;;
21424;SDS011;10873;51.132;16.848;2023-02-28T04:07:34;21.38;;;13.43;;
21424;SDS011;10873;51.132;16.848;2023-02-28T04:10:01;21.25;;;13.63;;
21424;SDS011;10873;51.132;16.848;2023-02-28T04:12:28;20.27;;;13.50;;
21424;SDS011;10873;51.132;16.848;2023-02-28T04:14:54;21.90;;;13.98;;
21424;SDS011;10873;51.132;16.848;2023-02-28T04:17:25;21.20;;;13.65;;
21424;SDS011;10873;51.132;16.848;2023-02-28T04:20:03;20.50;;;14.15;;
21424;SDS011;10873;51.132;16.848;2023-02-28T04:23:15;21.27;;;14.50;;
21424;SDS011;10873;51.132;16.848;2023-02-28T04:25:44;20.27;;;14.15;;
21424;SDS011;10873;51.132;16.848;2023-02-28T04:28:15;23.50;;;15.25;;
21424;SDS011;10873;51.132;16.848;2023-02-28T04:30:44;24.38;;;14.73;;
21424;SDS011;10873;51.132;16.848;2023-02-28T04:33:22;22.70;;;13.85;;
21424;SDS011;10873;51.132;16.848;2023-02-28T04:35:57;21.70;;;14.38;;
21424;SDS011;10873;51.132;16.848;2023-02-28T04:38:33;22.48;;;14.70;;
21424;SDS011;10873;51.132;16.848;2023-02-28T04:41:02;21.48;;;14.35;;
21424;SDS011;10873;51.132;16.848;2023-02-28T04:43:32;21.48;;;14.05;;
21424;SDS011;10873;51.132;16.848;2023-02-28T04:46:12;21.77;;;14.32;;
21424;SDS011;10873;51.132;16.848;2023-02-28T04:48:39;20.45;;;13.85;;
21424;SDS011;10873;51.132;16.848;2023-02-28T04:51:06;19.55;;;13.77;;
21424;SDS011;10873;51.132;16.848;2023-02-28T04:53:34;21.95;;;14.35;;
21424;SDS011;10873;51.132;16.848;2023-02-28T04:56:03;21.42;;;14.23;;
21424;SDS011;10873;51.132;16.848;2023-02-28T04:58:33;20.40;;;13.30;;
21424;SDS011;10873;51.132;16.848;2023-02-28T05:01:16;23.42;;;14.48;;
21424;SDS011;10873;51.132;16.848;2023-02-28T05:03:56;21.35;;;13.68;;
21424;SDS011;10873;51.132;16.848;2023-02-28T05:06:24;21.85;;;14.80;;
21424;SDS011;10873;51.132;16.848;2023-02-28T05:08:51;22.92;;;15.25;;
21424;SDS011;10873;51.132;16.848;2023-02-28T05:11:20;21.55;;;14.85;;
21424;SDS011;10873;51.132;16.848;2023-02-28T05:13:49;22.67;;;14.75;;
21424;SDS011;10873;51.132;16.848;2023-02-28T05:16:16;21.00;;;13.98;;
21424;SDS011;10873;51.132;16.848;2023-02-28T05:18:43;21.08;;;14.13;;
21424;SDS011;10873;51.132;16.848;2023-02-28T05:21:23;22.40;;;14.68;;
21424;SDS011;10873;51.132;16.848;2023-02-28T05:23:51;23.52;;;15.70;;
21424;SDS011;10873;51.132;16.848;2023-02-28T05:26:19;26.83;;;17.02;;
21424;SDS011;10873;51.132;16.848;2023-02-28T05:28:45;27.38;;;17.48;;
21424;SDS011;10873;51.132;16.848;2023-02-28T05:31:11;64.20;;;17.88;;
21424;SDS011;10873;51.132;16.848;2023-02-28T05:33:38;45.47;;;19.17;;
21424;SDS011;10873;51.132;16.848;2023-02-28T05:36:05;51.00;;;22.75;;
21424;SDS011;10873;51.132;16.848;2023-02-28T05:38:32;50.92;;;22.85;;
21424;SDS011;10873;51.132;16.848;2023-02-28T05:40:58;45.00;;;21.38;;
21424;SDS011;10873;51.132;16.848;2023-02-28T05:43:26;46.70;;;22.02;;
21424;SDS011;10873;51.132;16.848;2023-02-28T05:45:52;36.42;;;20.60;;
21424;SDS011;10873;51.132;16.848;2023-02-28T05:48:18;42.75;;;19.55;;
21424;SDS011;10873;51.132;16.848;2023-02-28T05:50:44;32.40;;;19.42;;
21424;SDS011;10873;51.132;16.848;2023-02-28T05:53:11;38.38;;;18.80;;
21424;SDS011;10873;51.132;16.848;2023-02-28T05:55:37;37.08;;;20.60;;
21424;SDS011;10873;51.132;16.848;2023-02-28T05:58:03;34.90;;;20.77;;
21424;SDS011;10873;51.132;16.848;2023-02-28T06:00:31;32.60;;;20.77;;
21424;SDS011;10873;51.132;16.848;2023-02-28T06:02:57;34.67;;;19.67;;
21424;SDS011;10873;51.132;16.848;2023-02-28T06:05:26;30.25;;;19.17;;
21424;SDS011;10873;51.132;16.848;2023-02-28T06:07:53;31.88;;;19.40;;
21424;SDS011;10873;51.132;16.848;2023-02-28T06:10:19;34.45;;;19.95;;
21424;SDS011;10873;51.132;16.848;2023-02-28T06:12:45;36.15;;;21.20;;
21424;SDS011;10873;51.132;16.848;2023-02-28T06:15:12;39.17;;;23.38;;
21424;SDS011;10873;51.132;16.848;2023-02-28T06:17:41;41.00;;;23.38;;
21424;SDS011;10873;51.132;16.848;2023-02-28T06:20:07;40.03;;;23.77;;
21424;SDS011;10873;51.132;16.848;2023-02-28T06:22:34;37.63;;;24.30;;
21424;SDS011;10873;51.132;16.848;2023-02-28T06:25:00;34.85;;;23.83;;
21424;SDS011;10873;51.132;16.848;2023-02-28T06:27:27;32.05;;;22.48;;
21424;SDS011;10873;51.132;16.848;2023-02-28T06:29:53;34.17;;;22.48;;
21424;SDS011;10873;51.132;16.848;2023-02-28T06:32:21;35.30;;;23.10;;
21424;SDS011;10873;51.132;16.848;2023-02-28T06:34:48;36.10;;;23.45;;
21424;SDS011;10873;51.132;16.848;2023-02-28T06:37:15;34.47;;;22.98;;
21424;SDS011;10873;51.132;16.848;2023-02-28T06:39:41;34.65;;;23.40;;
21424;SDS011;10873;51.132;16.848;2023-02-28T06:42:08;34.42;;;22.58;;
21424;SDS011;10873;51.132;16.848;2023-02-28T06:44:34;39.95;;;24.48;;
21424;SDS011;10873;51.132;16.848;2023-02-28T06:47:03;37.83;;;24.58;;
21424;SDS011;10873;51.132;16.848;2023-02-28T06:49:30;38.78;;;23.48;;
21424;SDS011;10873;51.132;16.848;2023-02-28T06:51:59;32.88;;;22.08;;
21424;SDS011;10873;51.132;16.848;2023-02-28T06:54:25;36.47;;;22.15;;
21424;SDS011;10873;51.132;16.848;2023-02-28T06:56:51;32.95;;;21.33;;
21424;SDS011;10873;51.132;16.848;2023-02-28T06:59:19;34.38;;;20.55;;
21424;SDS011;10873;51.132;16.848;2023-02-28T07:01:46;33.15;;;20.70;;
21424;SDS011;10873;51.132;16.848;2023-02-28T07:04:12;32.42;;;20.38;;
21424;SDS011;10873;51.132;16.848;2023-02-28T07:06:38;29.55;;;20.17;;
21424;SDS011;10873;51.132;16.848;2023-02-28T07:09:06;30.98;;;19.33;;
21424;SDS011;10873;51.132;16.848;2023-02-28T07:11:32;27.08;;;18.75;;
21424;SDS011;10873;51.132;16.848;2023-02-28T07:13:58;31.55;;;21.33;;
21424;SDS011;10873;51.132;16.848;2023-02-28T07:16:24;33.58;;;21.85;;
21424;SDS011;10873;51.132;16.848;2023-02-28T07:18:51;30.77;;;21.27;;
21424;SDS011;10873;51.132;16.848;2023-02-28T07:21:18;31.10;;;20.10;;
21424;SDS011;10873;51.132;16.848;2023-02-28T07:23:44;32.22;;;20.40;;
21424;SDS011;10873;51.132;16.848;2023-02-28T07:26:12;28.45;;;18.88;;
21424;SDS011;10873;51.132;16.848;2023-02-28T07:28:40;26.67;;;19.08;;
21424;SDS011;10873;51.132;16.848;2023-02-28T07:31:08;28.55;;;18.45;;
21424;SDS011;10873;51.132;16.848;2023-02-28T07:33:34;27.63;;;18.38;;
21424;SDS011;10873;51.132;16.848;2023-02-28T07:36:01;29.05;;;18.33;;
21424;SDS011;10873;51.132;16.848;2023-02-28T07:38:27;24.33;;;16.92;;
21424;SDS011;10873;51.132;16.848;2023-02-28T07:40:54;24.48;;;16.08;;
21424;SDS011;10873;51.132;16.848;2023-02-28T07:43:21;26.80;;;16.90;;
21424;SDS011;10873;51.132;16.848;2023-02-28T07:45:47;25.25;;;15.82;;
21424;SDS011;10873;51.132;16.848;2023-02-28T07:48:13;25.52;;;16.00;;
21424;SDS011;10873;51.132;16.848;2023-02-28T07:50:39;23.38;;;15.45;;
21424;SDS011;10873;51.132;16.848;2023-02-28T07:53:05;24.50;;;15.57;;
21424;SDS011;10873;51.132;16.848;2023-02-28T07:55:31;20.38;;;13.70;;
21424;SDS011;10873;51.132;16.848;2023-02-28T07:57:57;23.13;;;14.55;;
21424;SDS011;10873;51.132;16.848;2023-02-28T08:00:25;21.52;;;13.50;;
21424;SDS011;10873;51.132;16.848;2023-02-28T08:02:51;20.02;;;13.20;;
21424;SDS011;10873;51.132;16.848;2023-02-28T08:05:17;20.05;;;13.18;;
21424;SDS011;10873;51.132;16.848;2023-02-28T08:07:43;20.45;;;12.48;;
21424;SDS011;10873;51.132;16.848;2023-02-28T08:10:09;19.13;;;12.63;;
21424;SDS011;10873;51.132;16.848;2023-02-28T08:12:35;18.02;;;12.63;;
21424;SDS011;10873;51.132;16.848;2023-02-28T08:15:02;18.92;;;12.25;;
21424;SDS011;10873;51.132;16.848;2023-02-28T08:17:29;18.80;;;11.93;;
21424;SDS011;10873;51.132;16.848;2023-02-28T08:19:55;18.80;;;11.48;;
21424;SDS011;10873;51.132;16.848;2023-02-28T08:22:21;17.45;;;11.48;;
21424;SDS011;10873;51.132;16.848;2023-02-28T08:24:47;16.13;;;10.90;;
21424;SDS011;10873;51.132;16.848;2023-02-28T08:27:14;20.20;;;10.50;;
21424;SDS011;10873;51.132;16.848;2023-02-28T08:29:40;15.52;;;10.35;;
21424;SDS011;10873;51.132;16.848;2023-02-28T08:32:06;13.23;;;9.77;;
21424;SDS011;10873;51.132;16.848;2023-02-28T08:34:34;16.50;;;10.43;;
21424;SDS011;10873;51.132;16.848;2023-02-28T08:37:00;18.20;;;10.05;;
21424;SDS011;10873;51.132;16.848;2023-02-28T08:39:26;15.65;;;9.88;;
21424;SDS011;10873;51.132;16.848;2023-02-28T08:41:52;11.55;;;8.80;;
21424;SDS011;10873;51.132;16.848;2023-02-28T08:44:18;15.23;;;9.93;;
21424;SDS011;10873;51.132;16.848;2023-02-28T08:46:44;15.02;;;9.00;;
21424;SDS011;10873;51.132;16.848;2023-02-28T08:49:10;11.55;;;8.57;;
21424;SDS011;10873;51.132;16.848;2023-02-28T08:51:38;12.55;;;8.88;;
21424;SDS011;10873;51.132;16.848;2023-02-28T08:54:04;13.32;;;8.98;;
21424;SDS011;10873;51.132;16.848;2023-02-28T08:56:30;11.52;;;8.45;;
21424;SDS011;10873;51.132;16.848;2023-02-28T08:58:56;14.20;;;8.55;;
21424;SDS011;10873;51.132;16.848;2023-02-28T09:01:23;13.27;;;8.25;;
21424;SDS011;10873;51.132;16.848;2023-02-28T09:03:52;14.25;;;8.57;;
21424;SDS011;10873;51.132;16.848;2023-02-28T09:06:20;12.55;;;8.27;;
21424;SDS011;10873;51.132;16.848;2023-02-28T09:08:49;11.57;;;7.75;;
21424;SDS011;10873;51.132;16.848;2023-02-28T09:11:16;10.50;;;8.00;;
21424;SDS011;10873;51.132;16.848;2023-02-28T09:13:44;11.85;;;7.95;;
21424;SDS011;10873;51.132;16.848;2023-02-28T09:16:11;11.23;;;7.85;;
21424;SDS011;10873;51.132;16.848;2023-02-28T09:18:39;12.60;;;7.55;;
21424;SDS011;10873;51.132;16.848;2023-02-28T09:21:05;12.60;;;7.75;;
21424;SDS011;10873;51.132;16.848;2023-02-28T09:23:33;13.18;;;7.68;;
21424;SDS011;10873;51.132;16.848;2023-02-28T09:26:00;11.20;;;7.13;;
21424;SDS011;10873;51.132;16.848;2023-02-28T09:28:26;11.02;;;6.80;;
21424;SDS011;10873;51.132;16.848;2023-02-28T09:30:53;11.27;;;7.05;;
21424;SDS011;10873;51.132;16.848;2023-02-28T09:33:20;11.52;;;7.53;;
21424;SDS011;10873;51.132;16.848;2023-02-28T09:35:47;9.90;;;6.88;;
21424;SDS011;10873;51.132;16.848;2023-02-28T09:38:13;10.82;;;7.25;;
21424;SDS011;10873;51.132;16.848;2023-02-28T09:40:43;11.75;;;6.65;;
21424;SDS011;10873;51.132;16.848;2023-02-28T09:43:15;9.65;;;6.78;;
21424;SDS011;10873;51.132;16.848;2023-02-28T09:45:44;8.85;;;6.32;;
21424;SDS011;10873;51.132;16.848;2023-02-28T09:48:18;8.90;;;6.32;;
21424;SDS011;10873;51.132;16.848;2023-02-28T09:50:48;9.65;;;6.78;;
21424;SDS011;10873;51.132;16.848;2023-02-28T10:13:36;8.10;;;6.18;;
21424;SDS011;10873;51.132;16.848;2023-02-28T10:16:12;8.38;;;6.03;;
21424;SDS011;10873;51.132;16.848;2023-02-28T10:20:04;10.57;;;8.02;;
21424;SDS011;10873;51.132;16.848;2023-02-28T10:23:01;19.15;;;14.82;;
21424;SDS011;10873;51.132;16.848;2023-02-28T10:25:57;35.08;;;24.02;;
21424;SDS011;10873;51.132;16.848;2023-02-28T10:31:42;25.00;;;19.42;;
21424;SDS011;10873;51.132;16.848;2023-02-28T10:34:12;25.65;;;19.60;;
21424;SDS011;10873;51.132;16.848;2023-02-28T10:36:44;28.92;;;20.55;;
21424;SDS011;10873;51.132;16.848;2023-02-28T10:43:27;32.50;;;20.95;;
21424;SDS011;10873;51.132;16.848;2023-02-28T10:49:21;27.67;;;18.77;;
21424;SDS011;10873;51.132;16.848;2023-02-28T10:52:06;25.92;;;17.75;;
21424;SDS011;10873;51.132;16.848;2023-02-28T10:54:44;24.38;;;16.75;;
21424;SDS011;10873;51.132;16.848;2023-02-28T10:57:16;23.75;;;16.50;;
21424;SDS011;10873;51.132;16.848;2023-02-28T11:03:03;21.85;;;15.40;;
21424;SDS011;10873;51.132;16.848;2023-02-28T11:06:25;23.13;;;15.80;;
21424;SDS011;10873;51.132;16.848;2023-02-28T11:08:55;22.42;;;17.02;;
21424;SDS011;10873;51.132;16.848;2023-02-28T11:11:23;23.73;;;16.60;;
21424;SDS011;10873;51.132;16.848;2023-02-28T11:13:51;22.52;;;15.77;;
21424;SDS011;10873;51.132;16.848;2023-02-28T11:16:32;20.70;;;14.65;;
21424;SDS011;10873;51.132;16.848;2023-02-28T11:19:06;22.23;;;15.23;;
21424;SDS011;10873;51.132;16.848;2023-02-28T11:21:51;19.52;;;13.52;;
21424;SDS011;10873;51.132;16.848;2023-02-28T11:24:23;17.33;;;12.55;;
21424;SDS011;10873;51.132;16.848;2023-02-28T11:26:52;17.42;;;12.00;;
21424;SDS011;10873;51.132;16.848;2023-02-28T11:29:21;15.32;;;11.63;;
21424;SDS011;10873;51.132;16.848;2023-02-28T11:32:11;15.43;;;11.32;;
21424;SDS011;10873;51.132;16.848;2023-02-28T11:35:00;16.33;;;11.30;;
21424;SDS011;10873;51.132;16.848;2023-02-28T11:37:38;13.35;;;9.82;;
21424;SDS011;10873;51.132;16.848;2023-02-28T11:40:05;13.10;;;9.85;;
21424;SDS011;10873;51.132;16.848;2023-02-28T11:42:45;14.63;;;10.18;;
21424;SDS011;10873;51.132;16.848;2023-02-28T11:45:21;14.05;;;10.10;;
21424;SDS011;10873;51.132;16.848;2023-02-28T11:47:58;13.40;;;9.25;;
21424;SDS011;10873;51.132;16.848;2023-02-28T11:53:35;12.98;;;8.85;;
21424;SDS011;10873;51.132;16.848;2023-02-28T11:56:17;11.25;;;8.43;;
21424;SDS011;10873;51.132;16.848;2023-02-28T11:58:52;11.45;;;8.00;;
21424;SDS011;10873;51.132;16.848;2023-02-28T12:05:36;10.38;;;7.47;;
21424;SDS011;10873;51.132;16.848;2023-02-28T12:09:11;10.55;;;7.80;;
21424;SDS011;10873;51.132;16.848;2023-02-28T12:27:14;11.52;;;6.93;;
21424;SDS011;10873;51.132;16.848;2023-02-28T12:29:55;11.90;;;7.15;;
21424;SDS011;10873;51.132;16.848;2023-02-28T12:33:10;10.02;;;7.57;;
21424;SDS011;10873;51.132;16.848;2023-02-28T12:49:02;14.15;;;7.32;;
21424;SDS011;10873;51.132;16.848;2023-02-28T12:54:26;12.75;;;7.72;;
21424;SDS011;10873;51.132;16.848;2023-02-28T13:04:19;12.48;;;7.25;;
21424;SDS011;10873;51.132;16.848;2023-02-28T13:07:12;9.60;;;7.22;;
21424;SDS011;10873;51.132;16.848;2023-02-28T13:10:00;11.32;;;7.53;;
21424;SDS011;10873;51.132;16.848;2023-02-28T13:12:29;12.10;;;7.45;;
21424;SDS011;10873;51.132;16.848;2023-02-28T13:15:02;10.38;;;6.93;;
21424;SDS011;10873;51.132;16.848;2023-02-28T13:17:36;10.43;;;7.95;;
21424;SDS011;10873;51.132;16.848;2023-02-28T13:20:13;10.43;;;7.07;;
21424;SDS011;10873;51.132;16.848;2023-02-28T13:22:43;9.85;;;6.95;;
21424;SDS011;10873;51.132;16.848;2023-02-28T13:31:30;11.23;;;7.25;;
21424;SDS011;10873;51.132;16.848;2023-02-28T13:34:12;9.93;;;7.13;;
21424;SDS011;10873;51.132;16.848;2023-02-28T13:36:41;8.38;;;6.75;;
21424;SDS011;10873;51.132;16.848;2023-02-28T13:42:23;12.98;;;8.77;;
21424;SDS011;10873;51.132;16.848;2023-02-28T13:45:22;13.13;;;9.52;;
21424;SDS011;10873;51.132;16.848;2023-02-28T13:47:54;14.05;;;8.65;;
21424;SDS011;10873;51.132;16.848;2023-02-28T13:50:27;11.70;;;8.85;;
21424;SDS011;10873;51.132;16.848;2023-02-28T13:53:07;12.20;;;8.98;;
21424;SDS011;10873;51.132;16.848;2023-02-28T13:56:03;10.85;;;8.07;;
21424;SDS011;10873;51.132;16.848;2023-02-28T13:58:41;10.32;;;7.80;;
21424;SDS011;10873;51.132;16.848;2023-02-28T14:01:26;11.27;;;8.32;;
21424;SDS011;10873;51.132;16.848;2023-02-28T14:04:05;11.85;;;7.55;;
21424;SDS011;10873;51.132;16.848;2023-02-28T14:06:45;9.77;;;7.63;;
21424;SDS011;10873;51.132;16.848;2023-02-28T14:09:18;10.73;;;7.82;;
21424;SDS011;10873;51.132;16.848;2023-02-28T14:11:48;10.07;;;7.43;;
21424;SDS011;10873;51.132;16.848;2023-02-28T14:17:15;8.98;;;6.78;;
21424;SDS011;10873;51.132;16.848;2023-02-28T14:19:43;10.13;;;7.07;;
21424;SDS011;10873;51.132;16.848;2023-02-28T14:22:16;9.75;;;6.90;;
21424;SDS011;10873;51.132;16.848;2023-02-28T14:25:10;9.95;;;7.30;;
21424;SDS011;10873;51.132;16.848;2023-02-28T14:27:43;17.25;;;10.65;;
21424;SDS011;10873;51.132;16.848;2023-02-28T14:33:18;34.63;;;22.83;;
21424;SDS011;10873;51.132;16.848;2023-02-28T14:35:55;39.22;;;25.13;;
21424;SDS011;10873;51.132;16.848;2023-02-28T14:38:30;44.13;;;25.10;;
21424;SDS011;10873;51.132;16.848;2023-02-28T14:41:04;41.50;;;25.02;;
21424;SDS011;10873;51.132;16.848;2023-02-28T14:43:47;45.65;;;26.50;;
21424;SDS011;10873;51.132;16.848;2023-02-28T14:46:14;41.17;;;24.52;;
21424;SDS011;10873;51.132;16.848;2023-02-28T14:48:42;60.13;;;32.88;;
21424;SDS011;10873;51.132;16.848;2023-02-28T14:51:10;96.97;;;48.13;;
21424;SDS011;10873;51.132;16.848;2023-02-28T14:53:43;94.95;;;49.55;;
21424;SDS011;10873;51.132;16.848;2023-02-28T14:56:19;108.57;;;56.03;;
21424;SDS011;10873;51.132;16.848;2023-02-28T14:58:50;97.85;;;50.67;;
21424;SDS011;10873;51.132;16.848;2023-02-28T15:01:18;88.53;;;44.92;;
21424;SDS011;10873;51.132;16.848;2023-02-28T15:03:46;77.20;;;41.38;;
21424;SDS011;10873;51.132;16.848;2023-02-28T15:06:13;69.85;;;38.17;;
21424;SDS011;10873;51.132;16.848;2023-02-28T15:08:43;67.63;;;35.30;;
21424;SDS011;10873;51.132;16.848;2023-02-28T15:11:12;54.78;;;30.85;;
21424;SDS011;10873;51.132;16.848;2023-02-28T15:13:43;52.72;;;30.20;;
21424;SDS011;10873;51.132;16.848;2023-02-28T15:16:11;51.30;;;28.13;;
21424;SDS011;10873;51.132;16.848;2023-02-28T15:18:43;47.60;;;25.58;;
21424;SDS011;10873;51.132;16.848;2023-02-28T15:21:12;42.90;;;23.42;;
21424;SDS011;10873;51.132;16.848;2023-02-28T15:23:41;41.83;;;23.23;;
21424;SDS011;10873;51.132;16.848;2023-02-28T15:26:10;42.58;;;22.15;;
21424;SDS011;10873;51.132;16.848;2023-02-28T15:28:41;38.03;;;21.13;;
21424;SDS011;10873;51.132;16.848;2023-02-28T15:31:17;38.10;;;19.60;;
21424;SDS011;10873;51.132;16.848;2023-02-28T15:33:54;33.15;;;19.08;;
21424;SDS011;10873;51.132;16.848;2023-02-28T15:36:24;30.98;;;16.75;;
21424;SDS011;10873;51.132;16.848;2023-02-28T15:38:53;27.63;;;16.00;;
21424;SDS011;10873;51.132;16.848;2023-02-28T15:41:24;27.50;;;16.27;;
21424;SDS011;10873;51.132;16.848;2023-02-28T15:46:57;26.10;;;14.82;;
21424;SDS011;10873;51.132;16.848;2023-02-28T15:49:26;22.52;;;13.75;;
21424;SDS011;10873;51.132;16.848;2023-02-28T15:51:55;25.30;;;13.85;;
21424;SDS011;10873;51.132;16.848;2023-02-28T15:54:25;22.05;;;13.35;;
21424;SDS011;10873;51.132;16.848;2023-02-28T15:56:54;22.35;;;13.40;;
21424;SDS011;10873;51.132;16.848;2023-02-28T15:59:23;21.73;;;12.90;;
21424;SDS011;10873;51.132;16.848;2023-02-28T16:02:03;23.30;;;12.80;;
21424;SDS011;10873;51.132;16.848;2023-02-28T16:05:00;19.05;;;11.98;;
21424;SDS011;10873;51.132;16.848;2023-02-28T16:07:28;20.05;;;12.48;;
21424;SDS011;10873;51.132;16.848;2023-02-28T16:09:54;21.50;;;12.10;;
21424;SDS011;10873;51.132;16.848;2023-02-28T16:12:22;19.95;;;11.23;;
21424;SDS011;10873;51.132;16.848;2023-02-28T16:14:52;19.23;;;11.38;;
21424;SDS011;10873;51.132;16.848;2023-02-28T16:17:21;19.77;;;11.68;;
21424;SDS011;10873;51.132;16.848;2023-02-28T16:19:49;20.00;;;11.60;;
21424;SDS011;10873;51.132;16.848;2023-02-28T16:22:14;20.45;;;11.63;;